Time;durP1;ratioP1;P1;durP2;ratioP2;P2;SDS_P1;SDS_P2;PMS_P1;PMS_P2;Temp;Humidity;BMP_temperature;BMP_pressure;BME280_temperature;BME280_humidity;BME280_pressure;Samples;Min_cycle;Max_cycle;Signal;HPM_P1;HPM_P2
2023/05/19 00:01:12;;;;;;;5.88;2.17;;;;;;;8.68;100.00;101469.31;4933897;29;20128;-74
2023/05/19 00:03:47;;;;;;;5.70;2.15;;;;;;;8.63;100.00;101460.94;4932984;29;20478;-74
2023/05/19 00:06:13;;;;;;;5.70;2.35;;;;;;;8.60;100.00;101467.00;4930892;29;20036;-74
2023/05/19 00:08:38;;;;;;;8.27;2.42;;;;;;;8.56;100.00;101463.09;4923247;29;20039;-74
2023/05/19 00:11:05;;;;;;;4.28;2.20;;;;;;;8.56;100.00;101463.09;4921894;29;20089;-74
2023/05/19 00:13:30;;;;;;;4.32;2.40;;;;;;;8.56;100.00;101463.09;4925135;29;20028;-74
2023/05/19 00:15:56;;;;;;;3.97;2.13;;;;;;;8.56;100.00;101465.03;4919887;29;20063;-74
2023/05/19 00:18:22;;;;;;;4.30;2.10;;;;;;;8.55;100.00;101472.47;4930800;29;20039;-74
2023/05/19 00:20:47;;;;;;;3.90;2.03;;;;;;;8.52;100.00;101470.22;4934169;29;20433;-74
2023/05/19 00:23:13;;;;;;;3.92;1.98;;;;;;;8.52;100.00;101472.16;4935057;29;20096;-74
2023/05/19 00:25:38;;;;;;;7.50;2.30;;;;;;;8.48;100.00;101469.06;4918595;29;20032;-74
2023/05/19 00:28:04;;;;;;;6.65;2.25;;;;;;;8.48;100.00;101466.31;4919316;29;20032;-74
2023/05/19 00:30:29;;;;;;;5.70;2.10;;;;;;;8.45;100.00;101461.28;4934029;29;20064;-74
2023/05/19 00:32:55;;;;;;;5.78;2.33;;;;;;;8.41;100.00;101454.56;4919599;29;20032;-74
2023/05/19 00:35:21;;;;;;;6.22;1.90;;;;;;;8.33;100.00;101463.28;4919498;29;20059;-74
2023/05/19 00:37:47;;;;;;;5.57;2.38;;;;;;;8.32;100.00;101461.63;4934317;29;20079;-74
2023/05/19 00:40:13;;;;;;;4.38;2.28;;;;;;;8.26;100.00;101453.25;4931107;29;20029;-74
2023/05/19 00:42:38;;;;;;;7.35;2.45;;;;;;;8.24;100.00;101454.59;4918286;29;20047;-74
2023/05/19 00:45:04;;;;;;;4.40;2.08;;;;;;;8.20;100.00;101454.28;4934108;29;20036;-74
2023/05/19 00:47:30;;;;;;;6.82;2.97;;;;;;;8.17;100.00;101456.72;4923089;29;20107;-74
2023/05/19 00:49:55;;;;;;;8.93;3.28;;;;;;;8.15;100.00;101450.59;4922647;29;20039;-74
2023/05/19 00:52:21;;;;;;;8.02;2.63;;;;;;;8.13;100.00;101464.69;4922523;29;20044;-74
2023/05/19 00:54:46;;;;;;;7.00;2.78;;;;;;;8.15;100.00;101462.50;4922637;29;20040;-74
2023/05/19 00:57:12;;;;;;;4.93;2.42;;;;;;;8.17;100.00;101460.31;4937128;29;20075;-74
2023/05/19 00:59:38;;;;;;;5.20;2.60;;;;;;;8.15;100.00;101462.50;4935489;29;20152;-74
2023/05/19 01:02:03;;;;;;;6.93;2.50;;;;;;;8.14;100.00;101455.31;4922585;29;20028;-74
2023/05/19 01:04:33;;;;;;;7.97;3.33;;;;;;;8.14;100.00;101460.84;4921021;29;20494;-74
2023/05/19 01:06:59;;;;;;;8.88;2.90;;;;;;;8.13;100.00;101459.13;4936790;29;20031;-74
2023/05/19 01:09:24;;;;;;;6.63;2.75;;;;;;;8.15;100.00;101462.50;4916599;29;20398;-74
2023/05/19 01:11:50;;;;;;;6.18;2.70;;;;;;;8.03;100.00;101459.00;4930230;29;20028;-74
2023/05/19 01:14:15;;;;;;;8.77;2.95;;;;;;;7.96;100.00;101456.41;4936495;29;20044;-74
2023/05/19 01:17:15;;;;;;;10.13;3.65;;;;;;;7.90;100.00;101451.88;4920968;29;20111;-74
2023/05/19 01:19:45;;;;;;;7.63;2.90;;;;;;;7.91;100.00;101447.19;4912835;29;20028;-74
2023/05/19 01:22:32;;;;;;;6.82;3.38;;;;;;;7.94;100.00;101450.31;4922180;29;20498;-74
2023/05/19 01:25:07;;;;;;;7.88;3.00;;;;;;;7.95;100.00;101445.59;4917463;29;20028;-74
2023/05/19 01:28:23;;;;;;;7.22;3.30;;;;;;;7.93;100.00;101447.78;4922039;29;20079;-74
2023/05/19 01:30:53;;;;;;;6.90;3.25;;;;;;;7.91;100.00;101449.97;4910911;29;20382;-74
2023/05/19 01:33:18;;;;;;;8.50;3.15;;;;;;;7.89;100.00;101446.63;4934223;29;20039;-74
2023/05/19 01:35:44;;;;;;;8.23;3.10;;;;;;;7.86;100.00;101441.59;4933555;29;20036;-74
2023/05/19 01:38:10;;;;;;;8.13;3.00;;;;;;;7.91;100.00;101444.44;4936494;29;20481;-74
2023/05/19 01:40:37;;;;;;;7.38;3.45;;;;;;;7.88;100.00;101440.22;4936557;29;20047;-74
2023/05/19 01:43:02;;;;;;;6.43;2.70;;;;;;;7.90;100.00;101437.22;4921817;29;20024;-74
2023/05/19 01:45:28;;;;;;;8.65;3.55;;;;;;;7.89;100.00;101443.88;4932987;29;20032;-74
2023/05/19 01:47:56;;;;;;;9.25;3.33;;;;;;;7.88;100.00;101439.41;4936305;29;20118;-74
2023/05/19 01:50:21;;;;;;;7.95;3.55;;;;;;;7.86;100.00;101438.84;4936398;29;20046;-74
2023/05/19 01:52:47;;;;;;;8.57;3.55;;;;;;;7.86;100.00;101449.91;4936795;29;20028;-74
2023/05/19 01:55:12;;;;;;;8.93;3.17;;;;;;;7.84;100.00;101445.44;4921628;29;20032;-74
2023/05/19 01:57:43;;;;;;;11.73;3.50;;;;;;;7.83;100.00;101454.84;4940191;29;20048;-73
2023/05/19 02:00:34;;;;;;;6.13;3.10;;;;;;;7.84;100.00;101441.84;4940369;29;20031;-74
2023/05/19 02:03:06;;;;;;;5.68;3.17;;;;;;;7.81;100.00;101445.13;4925647;29;20024;-74
2023/05/19 02:06:10;;;;;;;10.85;3.85;;;;;;;7.78;100.00;101443.69;4943670;29;20051;-74
2023/05/19 02:08:45;;;;;;;12.05;4.03;;;;;;;7.77;100.00;101438.41;4922087;29;20072;-73
2023/05/19 02:11:28;;;;;;;6.75;3.40;;;;;;;7.76;100.00;101437.56;4903317;29;20038;-74
2023/05/19 02:13:55;;;;;;;8.50;4.13;;;;;;;7.76;100.00;101442.28;4942426;29;20047;-74
2023/05/19 02:16:20;;;;;;;8.48;3.63;;;;;;;7.73;100.00;101440.03;4939295;29;20106;-73
2023/05/19 02:18:46;;;;;;;7.05;3.50;;;;;;;7.75;100.00;101441.44;4922460;29;20107;-74
2023/05/19 02:21:12;;;;;;;9.07;4.03;;;;;;;7.71;100.00;101437.50;4940244;29;20032;-74
2023/05/19 02:23:41;;;;;;;9.38;3.92;;;;;;;7.69;100.00;101438.81;4938822;29;20058;-74
2023/05/19 02:26:07;;;;;;;8.65;4.03;;;;;;;7.68;100.00;101431.63;4940062;29;20505;-74
2023/05/19 02:28:33;;;;;;;10.18;3.70;;;;;;;7.64;100.00;101433.25;4922800;29;20035;-74
2023/05/19 02:31:00;;;;;;;10.00;3.75;;;;;;;7.65;100.00;101438.50;4922866;29;20036;-74
2023/05/19 02:33:26;;;;;;;9.02;4.28;;;;;;;7.65;100.00;101441.25;4939897;29;20078;-74
2023/05/19 02:35:52;;;;;;;12.15;4.45;;;;;;;7.61;100.00;101442.88;4923003;29;20087;-74
2023/05/19 02:38:17;;;;;;;6.82;3.72;;;;;;;7.54;100.00;101445.78;4922869;29;20032;-74
2023/05/19 02:40:43;;;;;;;9.30;4.22;;;;;;;7.54;100.00;101447.72;4922712;29;20042;-74
2023/05/19 02:43:08;;;;;;;11.75;4.00;;;;;;;7.57;100.00;101447.22;4937108;29;20024;-74
2023/05/19 02:45:34;;;;;;;8.32;4.30;;;;;;;7.50;100.00;101441.88;4939437;29;20036;-74
2023/05/19 02:47:59;;;;;;;9.88;4.00;;;;;;;7.49;100.00;101442.94;4939541;29;20032;-74
2023/05/19 02:50:25;;;;;;;8.35;3.50;;;;;;;7.46;100.00;101442.59;4935205;29;20032;-74
2023/05/19 02:52:51;;;;;;;8.70;4.07;;;;;;;7.45;100.00;101441.78;4918027;29;20034;-74
2023/05/19 02:55:17;;;;;;;7.85;4.03;;;;;;;7.45;100.00;101440.94;4939286;29;20039;-74
2023/05/19 02:57:42;;;;;;;8.68;4.53;;;;;;;7.43;100.00;101438.41;4939411;29;20063;-74
2023/05/19 03:00:08;;;;;;;8.60;3.72;;;;;;;7.43;100.00;101435.66;4939518;29;20386;-74
2023/05/19 03:02:34;;;;;;;10.57;4.28;;;;;;;7.38;100.00;101430.91;4940084;29;20031;-74
2023/05/19 03:05:02;;;;;;;12.80;4.20;;;;;;;7.32;100.00;101431.88;4938642;29;20059;-74
2023/05/19 03:07:27;;;;;;;8.52;4.63;;;;;;;7.36;100.00;101432.22;4926343;29;20064;-74
2023/05/19 03:09:53;;;;;;;6.25;3.58;;;;;;;7.30;100.00;101431.31;4943254;29;20032;-74
2023/05/19 03:12:18;;;;;;;7.50;3.75;;;;;;;7.30;100.00;101422.16;4910678;29;20040;-74
2023/05/19 03:14:44;;;;;;;10.93;3.88;;;;;;;7.33;100.00;101418.91;4938624;29;20043;-74
2023/05/19 03:17:09;;;;;;;10.38;3.80;;;;;;;7.27;100.00;101423.53;4945327;29;20536;-74
2023/05/19 03:19:35;;;;;;;7.10;3.78;;;;;;;7.24;100.00;101412.94;4943385;29;20031;-74
2023/05/19 03:22:00;;;;;;;8.23;3.88;;;;;;;7.27;100.00;101414.38;4926234;29;20059;-74
2023/05/19 03:24:26;;;;;;;8.52;3.90;;;;;;;7.25;100.00;101424.84;4941690;29;20046;-74
2023/05/19 03:26:52;;;;;;;10.32;4.32;;;;;;;7.23;100.00;101427.84;4925222;29;20028;-74
2023/05/19 03:29:17;;;;;;;8.98;4.10;;;;;;;7.20;100.00;101417.31;4924122;29;20036;-74
2023/05/19 03:31:43;;;;;;;8.68;4.32;;;;;;;7.16;100.00;101413.38;4939044;29;20028;-74
2023/05/19 03:34:08;;;;;;;8.77;3.67;;;;;;;7.17;100.00;101417.81;4922065;29;20425;-74
2023/05/19 03:36:38;;;;;;;8.15;3.67;;;;;;;7.14;100.00;101410.84;4939005;29;20031;-74
2023/05/19 03:39:07;;;;;;;7.53;4.05;;;;;;;7.12;100.00;101415.78;4937921;29;20027;-74
2023/05/19 03:41:32;;;;;;;9.70;4.25;;;;;;;7.09;100.00;101409.91;4938928;29;20070;-74
2023/05/19 03:43:57;;;;;;;8.48;4.50;;;;;;;7.07;100.00;101406.56;4938739;29;20035;-74
2023/05/19 03:46:23;;;;;;;9.02;4.07;;;;;;;7.07;100.00;101409.31;4938757;29;20035;-74
2023/05/19 03:48:48;;;;;;;11.25;4.68;;;;;;;7.08;100.00;101411.03;4938746;29;20083;-74
2023/05/19 03:51:14;;;;;;;9.02;3.95;;;;;;;7.01;100.00;101419.44;4938882;29;20042;-74
2023/05/19 03:53:40;;;;;;;8.85;4.20;;;;;;;7.00;100.00;101414.19;4945663;29;20032;-74
2023/05/19 03:56:06;;;;;;;8.80;4.03;;;;;;;6.96;100.00;101415.75;4938647;29;20040;-74
2023/05/19 03:58:32;;;;;;;10.55;4.00;;;;;;;6.97;100.00;101417.44;4931191;29;20055;-73
2023/05/19 04:00:57;;;;;;;6.20;3.30;;;;;;;6.92;100.00;101416.25;4921782;29;20047;-74
2023/05/19 04:03:24;;;;;;;7.25;3.50;;;;;;;6.91;100.00;101419.28;4938993;29;20040;-73
2023/05/19 04:05:50;;;;;;;8.13;4.10;;;;;;;6.87;100.00;101424.44;4930249;29;20044;-73
2023/05/19 04:08:16;;;;;;;9.50;4.28;;;;;;;6.89;100.00;101422.28;4941461;29;20110;-73
2023/05/19 04:10:41;;;;;;;7.93;4.15;;;;;;;6.85;100.00;101414.72;4940009;29;20032;-74
2023/05/19 04:13:07;;;;;;;10.60;4.10;;;;;;;6.87;100.00;101416.16;4940420;29;20028;-74
2023/05/19 04:15:32;;;;;;;8.15;4.50;;;;;;;6.85;100.00;101426.63;4921340;29;20543;-74
2023/05/19 04:17:58;;;;;;;9.55;4.15;;;;;;;6.81;100.00;101428.19;4943105;29;20028;-74
2023/05/19 04:20:23;;;;;;;8.75;4.20;;;;;;;6.79;100.00;101421.22;4939463;29;20083;-74
2023/05/19 04:22:49;;;;;;;11.18;4.28;;;;;;;6.76;100.00;101428.09;4942336;29;20035;-74
2023/05/19 04:25:14;;;;;;;6.88;3.90;;;;;;;6.78;100.00;101431.44;4940853;29;20062;-74
2023/05/19 04:27:39;;;;;;;7.25;4.13;;;;;;;6.71;100.00;101428.84;4942106;29;20064;-73
2023/05/19 04:30:05;;;;;;;8.48;4.00;;;;;;;6.74;100.00;101429.41;4941694;29;20035;-74
2023/05/19 04:32:31;;;;;;;12.27;4.68;;;;;;;6.69;100.00;101432.94;4937679;29;20405;-74
2023/05/19 04:34:58;;;;;;;10.68;4.22;;;;;;;6.69;100.00;101424.66;4936626;29;20035;-73
2023/05/19 04:37:26;;;;;;;10.18;4.50;;;;;;;6.67;100.00;101435.09;4940916;29;20063;-74
2023/05/19 04:39:53;;;;;;;12.45;4.75;;;;;;;6.69;100.00;101438.44;4941996;29;20027;-74
2023/05/19 04:42:18;;;;;;;8.55;4.70;;;;;;;6.69;100.00;101431.00;4924882;29;20023;-74
2023/05/19 04:44:44;;;;;;;10.00;4.70;;;;;;;6.71;100.00;101423.31;4941603;29;20032;-74
2023/05/19 04:47:10;;;;;;;10.25;4.93;;;;;;;6.74;100.00;101429.41;4940693;29;20453;-74
2023/05/19 04:49:38;;;;;;;11.95;4.70;;;;;;;6.75;100.00;101426.41;4924908;29;20095;-74
2023/05/19 04:52:09;;;;;;;11.05;4.60;;;;;;;6.80;100.00;101432.03;4941599;29;20032;-73
2023/05/19 04:54:35;;;;;;;11.43;5.10;;;;;;;6.83;100.00;101431.56;4941579;29;20036;-74
2023/05/19 04:57:01;;;;;;;9.77;4.78;;;;;;;6.91;100.00;101435.84;4928497;29;20047;-74
2023/05/19 04:59:26;;;;;;;11.05;4.90;;;;;;;6.97;100.00;101434.84;4924545;29;20032;-74
2023/05/19 05:01:52;;;;;;;10.85;5.28;;;;;;;7.04;100.00;101432.75;4933585;29;20035;-74
2023/05/19 05:04:18;;;;;;;11.20;5.80;;;;;;;7.13;100.00;101435.94;4940509;29;20040;-74
2023/05/19 05:06:46;;;;;;;11.07;5.85;;;;;;;7.23;100.00;101432.53;4920531;29;20032;-74
2023/05/19 05:09:15;;;;;;;12.52;6.07;;;;;;;7.34;100.00;101429.69;4937506;29;20048;-74
2023/05/19 05:11:40;;;;;;;14.75;6.35;;;;;;;7.48;100.00;101432.16;4931081;29;20096;-74
2023/05/19 05:14:06;;;;;;;12.20;5.70;;;;;;;7.60;100.00;101432.88;4936987;29;20599;-74
2023/05/19 05:16:32;;;;;;;14.07;5.90;;;;;;;7.73;100.00;101443.63;4916458;29;20038;-74
2023/05/19 05:18:59;;;;;;;10.55;5.15;;;;;;;7.87;100.00;101443.28;4936797;29;20024;-74
2023/05/19 05:21:25;;;;;;;8.75;4.63;;;;;;;8.01;100.00;101436.28;4932871;29;20035;-74
2023/05/19 05:23:50;;;;;;;13.10;5.20;;;;;;;8.13;100.00;101445.31;4920824;29;20393;-74
2023/05/19 05:26:18;;;;;;;9.23;4.15;;;;;;;8.27;100.00;101443.88;4939996;29;20032;-74
2023/05/19 05:28:43;;;;;;;9.13;4.18;;;;;;;8.42;100.00;101442.44;4940911;29;20032;-74
2023/05/19 05:31:09;;;;;;;10.52;4.03;;;;;;;8.56;100.00;101440.94;4923655;29;20036;-74
2023/05/19 05:33:35;;;;;;;9.55;4.30;;;;;;;8.70;100.00;101447.75;4941010;29;20035;-74
2023/05/19 05:36:00;;;;;;;8.00;4.03;;;;;;;8.87;100.00;101441.31;4939907;29;20102;-74
2023/05/19 05:38:25;;;;;;;9.32;3.97;;;;;;;9.01;100.00;101448.09;4939740;29;20028;-74
2023/05/19 05:40:51;;;;;;;7.93;4.03;;;;;;;9.15;100.00;101438.28;4940968;29;20032;-74
2023/05/19 05:43:16;;;;;;;8.23;4.13;;;;;;;9.31;100.00;101438.44;4940839;29;20036;-74
2023/05/19 05:45:42;;;;;;;6.95;3.75;;;;;;;9.45;100.00;101436.91;4939338;29;20050;-74
2023/05/19 05:48:08;;;;;;;9.90;3.88;;;;;;;9.62;100.00;101439.53;4940706;29;20119;-74
2023/05/19 05:50:34;;;;;;;9.63;4.13;;;;;;;9.75;100.00;101441.00;4940670;29;20115;-75
2023/05/19 05:52:59;;;;;;;9.77;3.95;;;;;;;9.91;100.00;101444.72;4940364;29;20031;-74
2023/05/19 05:55:25;;;;;;;11.70;4.00;;;;;;;10.07;100.00;101443.72;4920779;29;20481;-75
2023/05/19 05:57:51;;;;;;;11.35;4.72;;;;;;;10.23;100.00;101458.53;4923724;29;20065;-74
2023/05/19 06:00:17;;;;;;;11.85;4.90;;;;;;;10.36;100.00;101458.06;4923519;29;20516;-74
2023/05/19 06:02:45;;;;;;;12.07;4.70;;;;;;;10.50;100.00;101462.06;4939359;29;20039;-75
2023/05/19 06:05:11;;;;;;;9.45;5.55;;;;;;;10.66;100.00;101453.78;4910342;29;20035;-75
2023/05/19 06:07:37;;;;;;;12.70;5.82;;;;;;;10.78;100.00;101456.31;4951996;29;20072;-75
2023/05/19 06:10:03;;;;;;;12.60;5.13;;;;;;;10.91;100.00;101453.88;4929877;29;20376;-75
2023/05/19 06:12:29;;;;;;;11.68;5.13;;;;;;;11.06;100.00;101452.22;4925160;29;20036;-75
2023/05/19 06:14:54;;;;;;;16.40;6.97;;;;;;;11.20;100.00;101442.28;4927756;29;20027;-75
2023/05/19 06:17:20;;;;;;;11.75;4.53;;;;;;;11.32;100.00;101437.28;4940185;29;20564;-75
2023/05/19 06:19:45;;;;;;;16.42;7.15;;;;;;;11.48;100.00;101440.91;4940216;29;20025;-75
2023/05/19 06:22:11;;;;;;;11.23;4.72;;;;;;;11.66;100.00;101445.06;4923120;29;20087;-74
2023/05/19 06:24:36;;;;;;;9.50;4.57;;;;;;;11.83;100.00;101440.03;4923147;29;20500;-75
2023/05/19 06:27:02;;;;;;;11.52;5.07;;;;;;;12.01;100.00;101440.63;4939865;29;20031;-75
2023/05/19 06:29:27;;;;;;;14.93;5.07;;;;;;;12.15;100.00;101433.34;4919459;29;20052;-75
2023/05/19 06:31:53;;;;;;;12.68;4.55;;;;;;;12.34;100.00;101441.09;4935692;29;20028;-75
2023/05/19 06:34:19;;;;;;;12.95;4.70;;;;;;;12.44;100.00;101441.06;4940014;29;20039;-75
2023/05/19 06:36:45;;;;;;;12.75;6.47;;;;;;;12.61;100.00;101432.34;4920384;29;20138;-75
2023/05/19 06:39:10;;;;;;;11.07;5.05;;;;;;;12.76;100.00;101432.31;4938195;29;20035;-75
2023/05/19 06:41:36;;;;;;;12.20;5.35;;;;;;;12.92;100.00;101435.81;4907117;29;20055;-75
2023/05/19 06:44:02;;;;;;;12.32;6.53;;;;;;;13.05;100.00;101432.41;4938774;29;20032;-75
2023/05/19 06:46:28;;;;;;;10.73;5.97;;;;;;;13.15;100.00;101428.72;4939551;29;20028;-75
2023/05/19 06:48:53;;;;;;;15.75;5.80;;;;;;;13.30;100.00;101425.03;4922552;29;20440;-75
2023/05/19 06:51:21;;;;;;;14.13;6.70;;;;;;;13.44;100.00;101431.59;4922342;29;20036;-75
2023/05/19 06:53:47;;;;;;;14.02;5.88;;;;;;;13.57;100.00;101430.13;4939404;29;20063;-76
2023/05/19 06:56:14;;;;;;;10.23;4.82;;;;;;;13.73;100.00;101437.22;4935092;29;20528;-76
2023/05/19 06:58:42;;;;;;;9.52;4.80;;;;;;;13.87;100.00;101429.00;4920312;29;20552;-76
2023/05/19 07:01:07;;;;;;;16.38;6.60;;;;;;;13.96;100.00;101432.81;4919014;29;20111;-75
2023/05/19 07:03:33;;;;;;;11.50;5.70;;;;;;;14.07;100.00;101433.56;4935226;29;20039;-76
2023/05/19 07:05:58;;;;;;;11.40;6.00;;;;;;;14.18;100.00;101428.69;4919134;29;20043;-76
2023/05/19 07:08:26;;;;;;;12.38;6.68;;;;;;;14.23;100.00;101420.25;4919026;29;20548;-76
2023/05/19 07:10:52;;;;;;;16.25;6.90;;;;;;;14.34;100.00;101429.34;4934649;29;20062;-76
2023/05/19 07:13:17;;;;;;;10.68;6.18;;;;;;;14.41;100.00;101427.88;4920330;29;20031;-76
2023/05/19 07:15:43;;;;;;;13.32;7.00;;;;;;;14.46;100.00;101419.44;4931291;29;20036;-76
2023/05/19 07:18:08;;;;;;;17.88;6.78;;;;;;;14.62;100.00;101422.03;4915955;29;20040;-76
2023/05/19 07:20:34;;;;;;;15.60;6.45;;;;;;;14.74;100.00;101409.31;4931893;29;20044;-76
2023/05/19 07:23:01;;;;;;;11.63;6.82;;;;;;;14.81;100.00;101408.09;4927525;29;20544;-76
2023/05/19 07:25:29;;;;;;;15.20;4.72;;;;;;;14.98;100.00;101405.59;4923797;29;20034;-76
2023/05/19 07:27:55;;;;;;;13.50;5.43;;;;;;;15.13;100.00;101412.97;4923959;29;20137;-76
2023/05/19 07:30:20;;;;;;;12.90;6.20;;;;;;;15.22;100.00;101413.09;4926016;29;20039;-77
2023/05/19 07:32:46;;;;;;;11.43;6.78;;;;;;;15.29;100.00;101425.56;4935538;29;20033;-76
2023/05/19 07:35:11;;;;;;;11.05;5.63;;;;;;;15.44;100.00;101420.88;4938944;29;20028;-76
2023/05/19 07:37:37;;;;;;;13.15;5.60;;;;;;;15.47;100.00;101420.25;4923100;29;20055;-76
2023/05/19 07:40:06;;;;;;;14.52;6.68;;;;;;;15.52;100.00;101428.59;4922991;29;20032;-77
2023/05/19 07:42:32;;;;;;;14.40;5.50;;;;;;;15.64;100.00;101426.97;4922673;29;20047;-76
2023/05/19 07:44:58;;;;;;;14.07;6.07;;;;;;;15.75;100.00;101422.03;4923581;29;20485;-76
2023/05/19 07:47:23;;;;;;;15.70;7.32;;;;;;;15.83;100.00;101424.13;4934951;29;20032;-76
2023/05/19 07:49:50;;;;;;;11.82;5.38;;;;;;;15.95;100.00;101428.41;4915564;29;20115;-76
2023/05/19 07:52:17;;;;;;;11.13;5.53;;;;;;;15.99;100.00;101433.13;4935113;29;20112;-76
2023/05/19 07:54:43;;;;;;;13.55;5.60;;;;;;;16.08;100.00;101430.41;4904327;29;20059;-76
2023/05/19 07:57:08;;;;;;;14.35;7.00;;;;;;;16.17;100.00;101436.13;4938379;28;20157;-77
2023/05/19 07:59:34;;;;;;;15.82;7.55;;;;;;;16.28;100.00;101432.00;4923581;29;20036;-76
2023/05/19 08:02:00;;;;;;;16.55;8.73;;;;;;;16.37;100.00;101432.09;4938496;29;20035;-76
2023/05/19 08:04:26;;;;;;;9.23;5.63;;;;;;;16.43;96.62;101430.84;4922326;29;20044;-76
2023/05/19 08:06:52;;;;;;;13.88;7.40;;;;;;;16.51;98.21;101433.75;4938131;29;20032;-76
2023/05/19 08:09:17;;;;;;;17.60;7.40;;;;;;;16.64;97.29;101423.69;4938024;29;20087;-76
2023/05/19 08:11:43;;;;;;;17.67;6.95;;;;;;;16.75;98.25;101436.34;4938237;29;20039;-76
2023/05/19 08:14:09;;;;;;;12.50;5.70;;;;;;;16.89;94.71;101430.75;4938264;29;20036;-76
2023/05/19 08:16:35;;;;;;;13.48;6.57;;;;;;;17.00;93.92;101431.34;4937782;29;20108;-76
2023/05/19 08:19:03;;;;;;;16.60;6.53;;;;;;;17.06;94.57;101421.66;4923637;29;20043;-77
2023/05/19 08:21:30;;;;;;;15.63;6.18;;;;;;;17.17;93.60;101417.47;4934200;29;20529;-77
2023/05/19 08:23:55;;;;;;;13.52;7.70;;;;;;;17.25;94.68;101413.09;4921127;29;20047;-77
2023/05/19 08:26:21;;;;;;;15.57;6.53;;;;;;;17.33;92.61;101419.94;4918848;29;20037;-76
2023/05/19 08:28:47;;;;;;;14.25;6.82;;;;;;;17.41;90.78;101427.56;4921865;29;20043;-76
2023/05/19 08:31:12;;;;;;;14.18;6.60;;;;;;;17.48;91.17;101408.31;4921889;29;20035;-76
2023/05/19 08:33:38;;;;;;;12.93;6.88;;;;;;;17.52;90.90;101423.38;4937662;29;20032;-76
2023/05/19 08:36:03;;;;;;;14.32;6.57;;;;;;;17.59;87.49;101403.28;4923192;29;20059;-77
2023/05/19 08:38:29;;;;;;;15.80;7.40;;;;;;;17.68;88.81;101406.97;4934597;29;20108;-77
2023/05/19 08:40:56;;;;;;;15.77;7.25;;;;;;;17.74;90.11;101408.47;4913265;29;20032;-77
2023/05/19 08:43:22;;;;;;;20.85;9.35;;;;;;;17.79;90.21;101416.00;4937061;29;20031;-77
2023/05/19 08:45:47;;;;;;;18.17;7.93;;;;;;;17.85;91.21;101409.06;4921655;29;20397;-77
2023/05/19 08:48:13;;;;;;;16.70;7.30;;;;;;;17.90;89.05;101400.50;4937408;29;20032;-77
2023/05/19 08:50:40;;;;;;;13.13;6.15;;;;;;;18.00;86.94;101397.44;4922940;29;20039;-77
2023/05/19 08:53:12;;;;;;;14.25;7.65;;;;;;;18.06;85.96;101393.34;4937803;29;20102;-77
2023/05/19 08:56:00;;;;;;;18.83;9.52;;;;;;;18.14;92.44;101382.47;4940385;29;20408;-77
2023/05/19 08:58:26;;;;;;;16.15;8.35;;;;;;;18.20;90.08;101383.97;4924534;29;20102;-77
2023/05/19 09:00:52;;;;;;;18.42;8.32;;;;;;;18.21;87.85;101371.56;4924544;29;20036;-77
2023/05/19 09:03:18;;;;;;;14.18;7.63;;;;;;;18.38;84.37;101374.44;4923819;29;20043;-77
2023/05/19 09:05:45;;;;;;;15.35;8.77;;;;;;;18.34;83.63;101376.25;4908104;29;20079;-77
2023/05/19 09:08:10;;;;;;;14.25;7.55;;;;;;;18.56;82.97;101378.13;4924290;29;20028;-77
2023/05/19 09:10:36;;;;;;;17.60;9.13;;;;;;;18.49;85.17;101372.97;4941416;29;20047;-77
2023/05/19 09:13:01;;;;;;;22.77;8.95;;;;;;;18.61;87.75;101363.91;4940254;29;20036;-77
2023/05/19 09:15:27;;;;;;;15.15;8.73;;;;;;;18.64;87.30;101366.06;4941223;29;20067;-77
2023/05/19 09:18:19;;;;;;;15.63;8.38;;;;;;;18.73;86.58;101358.47;4908844;29;20115;-77
2023/05/19 09:20:45;;;;;;;13.52;8.00;;;;;;;18.75;81.81;101353.38;4928824;29;20040;-78
2023/05/19 09:23:14;;;;;;;15.93;7.60;;;;;;;18.86;80.62;101351.06;4940039;29;20038;-77
2023/05/19 09:25:52;;;;;;;14.23;7.78;;;;;;;18.81;80.28;101354.03;4921055;29;20047;-77
2023/05/19 09:28:25;;;;;;;14.82;7.65;;;;;;;18.92;79.93;101357.38;4939838;29;20063;-77
2023/05/19 09:30:58;;;;;;;16.13;8.55;;;;;;;18.97;80.97;101346.78;4912146;29;20032;-77
2023/05/19 09:33:23;;;;;;;14.60;8.50;;;;;;;18.98;85.43;101351.22;4922531;29;20068;-77
2023/05/19 09:35:49;;;;;;;15.82;8.25;;;;;;;19.12;84.42;101348.25;4939954;29;20032;-77
2023/05/19 09:38:18;;;;;;;19.73;9.55;;;;;;;19.14;86.95;101348.75;4940843;29;20043;-78
2023/05/19 09:40:43;;;;;;;16.83;9.15;;;;;;;19.31;84.00;101341.47;4936633;29;20024;-78
2023/05/19 09:43:09;;;;;;;17.48;8.68;;;;;;;19.47;87.04;101336.09;4923816;29;20043;-78
2023/05/19 09:45:35;;;;;;;21.02;8.68;;;;;;;19.47;79.56;101333.28;4923665;29;20036;-78
2023/05/19 09:48:05;;;;;;;18.20;9.45;;;;;;;19.59;80.78;101333.44;4922930;29;20088;-78
2023/05/19 09:50:30;;;;;;;18.45;9.15;;;;;;;19.65;79.59;101334.91;4939469;29;20035;-78
2023/05/19 09:52:55;;;;;;;15.27;8.07;;;;;;;19.79;80.63;101340.38;4923484;29;20032;-78
2023/05/19 09:55:22;;;;;;;15.13;8.02;;;;;;;19.90;83.15;101336.03;4923599;29;20397;-78
2023/05/19 09:57:48;;;;;;;15.85;7.57;;;;;;;19.97;79.64;101335.50;4923251;29;20040;-78
2023/05/19 10:00:16;;;;;;;17.38;9.07;;;;;;;20.12;82.42;101342.59;4923244;29;20429;-78
2023/05/19 10:02:42;;;;;;;16.88;7.72;;;;;;;20.21;78.76;101332.91;4938946;29;20035;-78
2023/05/19 10:05:12;;;;;;;18.17;8.57;;;;;;;20.25;78.95;101333.88;4940669;29;20063;-78
2023/05/19 10:07:39;;;;;;;16.60;9.40;;;;;;;20.31;77.20;101331.69;4939267;29;20040;-78
2023/05/19 10:10:10;;;;;;;15.52;7.90;;;;;;;20.51;80.10;101338.53;4938995;29;20039;-78
2023/05/19 10:12:36;;;;;;;13.60;7.22;;;;;;;20.58;74.74;101338.03;4938674;29;20086;-78
2023/05/19 10:15:02;;;;;;;14.70;7.72;;;;;;;20.68;70.14;101335.63;4923105;29;20035;-77
2023/05/19 10:17:28;;;;;;;14.57;7.28;;;;;;;20.82;71.86;101323.25;4922616;29;20040;-78
2023/05/19 10:19:53;;;;;;;13.73;7.20;;;;;;;20.84;72.92;101318.91;4922907;29;20032;-78
2023/05/19 10:22:19;;;;;;;15.68;8.18;;;;;;;20.90;69.71;101316.72;4938817;29;20036;-77
2023/05/19 10:24:44;;;;;;;16.88;7.78;;;;;;;20.98;67.93;101313.00;4907486;29;20036;-77
2023/05/19 10:27:13;;;;;;;14.65;6.68;;;;;;;21.06;72.31;101314.91;4938741;29;20027;-77
2023/05/19 10:29:42;;;;;;;15.90;7.90;;;;;;;21.14;74.37;101311.16;4881708;29;20371;-77
2023/05/19 10:32:10;;;;;;;13.65;7.25;;;;;;;21.22;70.72;101314.25;4907249;29;20046;-77
2023/05/19 10:35:11;;;;;;;14.65;7.00;;;;;;;21.20;67.65;101315.44;4903414;29;20086;-78
2023/05/19 10:37:44;;;;;;;13.77;6.72;;;;;;;21.22;63.85;101314.25;4922208;29;20032;-78
2023/05/19 10:40:29;;;;;;;12.95;6.63;;;;;;;21.17;62.44;101312.47;4936124;29;20056;-78
2023/05/19 10:43:15;;;;;;;14.95;7.05;;;;;;;21.09;64.58;101307.72;4922723;29;20429;-78
2023/05/19 10:45:45;;;;;;;10.82;6.50;;;;;;;20.98;61.77;101302.53;4938051;29;20042;-78
2023/05/19 10:48:14;;;;;;;15.55;6.93;;;;;;;20.95;63.41;101308.03;4922401;29;20040;-76
2023/05/19 10:50:39;;;;;;;31.05;6.57;;;;;;;20.72;62.64;101302.72;4939529;29;20126;-76
2023/05/19 10:53:05;;;;;;;18.27;6.70;;;;;;;20.80;64.19;101314.31;4922457;29;20035;-78
2023/05/19 10:55:54;;;;;;;12.93;5.93;;;;;;;20.98;64.14;101311.00;4922144;29;20047;-77
2023/05/19 10:58:42;;;;;;;11.55;5.72;;;;;;;21.03;63.67;101309.94;4940217;29;20051;-78
2023/05/19 11:01:17;;;;;;;12.45;6.55;;;;;;;21.10;62.79;101313.03;4943361;29;20548;-78
2023/05/19 11:03:47;;;;;;;13.75;6.88;;;;;;;21.14;62.13;101305.50;4926130;29;20035;-78
2023/05/19 11:06:20;;;;;;;15.00;6.65;;;;;;;21.19;62.00;101302.47;4943622;29;20032;-78
2023/05/19 11:08:46;;;;;;;13.93;5.75;;;;;;;21.33;61.01;101305.00;4942127;29;20036;-78
2023/05/19 11:11:15;;;;;;;10.23;5.30;;;;;;;21.25;57.94;101299.44;4926358;29;20028;-78
2023/05/19 11:13:56;;;;;;;10.65;5.22;;;;;;;21.32;56.56;101282.75;4926273;29;20027;-78
2023/05/19 11:16:28;;;;;;;16.70;6.22;;;;;;;21.31;57.93;101281.09;4910122;29;20043;-78
2023/05/19 11:18:55;;;;;;;14.68;7.00;;;;;;;21.40;59.81;101279.06;4924395;29;20110;-79
2023/05/19 11:21:20;;;;;;;11.93;5.97;;;;;;;21.43;60.32;101272.69;4922352;29;20038;-78